sensor_id;sensor_type;location;lat;lon;timestamp;P1;durP1;ratioP1;P2;durP2;ratioP2
69998;SDS011;57339;52.156;5.372;2023-12-04T00:01:59;40.60;;;14.33;;
69998;SDS011;57339;52.156;5.372;2023-12-04T00:04:26;36.42;;;12.77;;
69998;SDS011;57339;52.156;5.372;2023-12-04T00:06:53;37.00;;;13.73;;
69998;SDS011;57339;52.156;5.372;2023-12-04T00:09:20;32.67;;;12.80;;
69998;SDS011;57339;52.156;5.372;2023-12-04T00:11:47;33.80;;;12.73;;
69998;SDS011;57339;52.156;5.372;2023-12-04T00:14:14;32.90;;;12.90;;
69998;SDS011;57339;52.156;5.372;2023-12-04T00:16:41;32.35;;;12.07;;
69998;SDS011;57339;52.156;5.372;2023-12-04T00:19:08;37.03;;;13.73;;
69998;SDS011;57339;52.156;5.372;2023-12-04T00:21:36;39.40;;;14.68;;
69998;SDS011;57339;52.156;5.372;2023-12-04T00:24:04;34.80;;;13.10;;
69998;SDS011;57339;52.156;5.372;2023-12-04T00:26:31;31.47;;;12.40;;
69998;SDS011;57339;52.156;5.372;2023-12-04T00:28:58;35.22;;;13.05;;
69998;SDS011;57339;52.156;5.372;2023-12-04T00:31:25;37.13;;;13.57;;
69998;SDS011;57339;52.156;5.372;2023-12-04T00:33:52;35.80;;;12.32;;
69998;SDS011;57339;52.156;5.372;2023-12-04T00:36:19;34.30;;;13.98;;
69998;SDS011;57339;52.156;5.372;2023-12-04T00:38:47;32.00;;;13.27;;
69998;SDS011;57339;52.156;5.372;2023-12-04T00:41:13;36.97;;;13.43;;
69998;SDS011;57339;52.156;5.372;2023-12-04T00:43:41;33.58;;;12.40;;
69998;SDS011;57339;52.156;5.372;2023-12-04T00:46:08;35.35;;;13.80;;
69998;SDS011;57339;52.156;5.372;2023-12-04T00:48:35;35.45;;;13.77;;
69998;SDS011;57339;52.156;5.372;2023-12-04T00:51:02;34.03;;;13.00;;
69998;SDS011;57339;52.156;5.372;2023-12-04T00:53:29;34.90;;;14.38;;
69998;SDS011;57339;52.156;5.372;2023-12-04T00:55:55;37.75;;;14.07;;
69998;SDS011;57339;52.156;5.372;2023-12-04T00:58:22;35.70;;;13.07;;
69998;SDS011;57339;52.156;5.372;2023-12-04T01:00:50;39.60;;;13.43;;
69998;SDS011;57339;52.156;5.372;2023-12-04T01:03:17;36.63;;;14.17;;
69998;SDS011;57339;52.156;5.372;2023-12-04T01:05:44;38.90;;;14.20;;
69998;SDS011;57339;52.156;5.372;2023-12-04T01:08:11;38.90;;;14.82;;
69998;SDS011;57339;52.156;5.372;2023-12-04T01:10:38;38.85;;;14.95;;
69998;SDS011;57339;52.156;5.372;2023-12-04T01:13:05;38.47;;;13.63;;
69998;SDS011;57339;52.156;5.372;2023-12-04T01:15:33;39.93;;;13.93;;
69998;SDS011;57339;52.156;5.372;2023-12-04T01:17:59;38.88;;;13.52;;
69998;SDS011;57339;52.156;5.372;2023-12-04T01:20:27;38.25;;;15.35;;
69998;SDS011;57339;52.156;5.372;2023-12-04T01:22:54;39.35;;;15.02;;
69998;SDS011;57339;52.156;5.372;2023-12-04T01:25:21;41.10;;;14.85;;
69998;SDS011;57339;52.156;5.372;2023-12-04T01:27:48;40.73;;;15.17;;
69998;SDS011;57339;52.156;5.372;2023-12-04T01:30:15;42.05;;;15.68;;
69998;SDS011;57339;52.156;5.372;2023-12-04T01:32:42;40.47;;;14.70;;
69998;SDS011;57339;52.156;5.372;2023-12-04T01:35:08;41.15;;;15.10;;
69998;SDS011;57339;52.156;5.372;2023-12-04T01:37:36;38.50;;;15.27;;
69998;SDS011;57339;52.156;5.372;2023-12-04T01:40:04;40.33;;;16.20;;
69998;SDS011;57339;52.156;5.372;2023-12-04T01:42:31;39.25;;;14.68;;
69998;SDS011;57339;52.156;5.372;2023-12-04T01:44:58;38.92;;;15.18;;
69998;SDS011;57339;52.156;5.372;2023-12-04T01:47:25;40.08;;;14.27;;
69998;SDS011;57339;52.156;5.372;2023-12-04T01:49:52;40.50;;;14.43;;
69998;SDS011;57339;52.156;5.372;2023-12-04T01:52:20;41.63;;;15.07;;
69998;SDS011;57339;52.156;5.372;2023-12-04T01:54:47;36.08;;;13.63;;
69998;SDS011;57339;52.156;5.372;2023-12-04T01:57:14;43.97;;;15.98;;
69998;SDS011;57339;52.156;5.372;2023-12-04T01:59:41;39.78;;;15.25;;
69998;SDS011;57339;52.156;5.372;2023-12-04T02:02:09;41.60;;;15.07;;
69998;SDS011;57339;52.156;5.372;2023-12-04T02:04:36;42.77;;;14.87;;
69998;SDS011;57339;52.156;5.372;2023-12-04T02:07:03;41.20;;;16.00;;
69998;SDS011;57339;52.156;5.372;2023-12-04T02:09:30;39.08;;;14.05;;
69998;SDS011;57339;52.156;5.372;2023-12-04T02:11:58;44.53;;;14.70;;
69998;SDS011;57339;52.156;5.372;2023-12-04T02:14:25;37.83;;;14.50;;
69998;SDS011;57339;52.156;5.372;2023-12-04T02:16:52;39.27;;;14.27;;
69998;SDS011;57339;52.156;5.372;2023-12-04T02:19:22;39.10;;;13.50;;
69998;SDS011;57339;52.156;5.372;2023-12-04T02:21:49;35.78;;;14.50;;
69998;SDS011;57339;52.156;5.372;2023-12-04T02:24:16;40.78;;;15.27;;
69998;SDS011;57339;52.156;5.372;2023-12-04T02:26:55;41.58;;;15.68;;
69998;SDS011;57339;52.156;5.372;2023-12-04T02:29:37;34.23;;;13.93;;
69998;SDS011;57339;52.156;5.372;2023-12-04T02:32:07;40.40;;;15.18;;
69998;SDS011;57339;52.156;5.372;2023-12-04T02:34:38;40.70;;;15.30;;
69998;SDS011;57339;52.156;5.372;2023-12-04T02:37:08;37.55;;;14.45;;
69998;SDS011;57339;52.156;5.372;2023-12-04T02:39:36;38.85;;;14.93;;
69998;SDS011;57339;52.156;5.372;2023-12-04T02:42:04;38.37;;;14.80;;
69998;SDS011;57339;52.156;5.372;2023-12-04T02:44:30;37.55;;;14.15;;
69998;SDS011;57339;52.156;5.372;2023-12-04T02:46:57;36.60;;;14.63;;
69998;SDS011;57339;52.156;5.372;2023-12-04T02:49:24;37.05;;;14.02;;
69998;SDS011;57339;52.156;5.372;2023-12-04T02:51:52;37.58;;;14.35;;
69998;SDS011;57339;52.156;5.372;2023-12-04T02:54:19;32.70;;;12.73;;
69998;SDS011;57339;52.156;5.372;2023-12-04T02:56:46;37.65;;;14.27;;
69998;SDS011;57339;52.156;5.372;2023-12-04T02:59:13;37.78;;;14.18;;
69998;SDS011;57339;52.156;5.372;2023-12-04T03:01:39;35.30;;;14.18;;
69998;SDS011;57339;52.156;5.372;2023-12-04T03:04:06;39.92;;;14.38;;
69998;SDS011;57339;52.156;5.372;2023-12-04T03:06:33;37.60;;;14.13;;
69998;SDS011;57339;52.156;5.372;2023-12-04T03:09:01;36.40;;;13.35;;
69998;SDS011;57339;52.156;5.372;2023-12-04T03:11:29;35.95;;;13.45;;
69998;SDS011;57339;52.156;5.372;2023-12-04T03:13:56;37.50;;;14.38;;
69998;SDS011;57339;52.156;5.372;2023-12-04T03:16:26;33.25;;;12.65;;
69998;SDS011;57339;52.156;5.372;2023-12-04T03:18:53;32.23;;;12.77;;
69998;SDS011;57339;52.156;5.372;2023-12-04T03:21:20;34.17;;;13.98;;
69998;SDS011;57339;52.156;5.372;2023-12-04T03:23:47;32.38;;;12.82;;
69998;SDS011;57339;52.156;5.372;2023-12-04T03:26:14;36.85;;;14.07;;
69998;SDS011;57339;52.156;5.372;2023-12-04T03:28:41;35.50;;;14.32;;
69998;SDS011;57339;52.156;5.372;2023-12-04T03:31:08;33.47;;;14.17;;
69998;SDS011;57339;52.156;5.372;2023-12-04T03:33:36;36.08;;;14.40;;
69998;SDS011;57339;52.156;5.372;2023-12-04T03:36:03;34.10;;;13.50;;
69998;SDS011;57339;52.156;5.372;2023-12-04T03:38:30;35.08;;;13.57;;
69998;SDS011;57339;52.156;5.372;2023-12-04T03:40:58;37.50;;;14.30;;
69998;SDS011;57339;52.156;5.372;2023-12-04T03:43:24;35.03;;;13.87;;
69998;SDS011;57339;52.156;5.372;2023-12-04T03:45:51;34.50;;;12.77;;
69998;SDS011;57339;52.156;5.372;2023-12-04T03:48:18;35.95;;;14.70;;
69998;SDS011;57339;52.156;5.372;2023-12-04T03:50:45;34.30;;;13.27;;
69998;SDS011;57339;52.156;5.372;2023-12-04T03:53:12;34.80;;;14.13;;
69998;SDS011;57339;52.156;5.372;2023-12-04T03:55:39;35.03;;;13.83;;
69998;SDS011;57339;52.156;5.372;2023-12-04T03:58:06;35.70;;;13.05;;
69998;SDS011;57339;52.156;5.372;2023-12-04T04:00:33;33.10;;;13.43;;
69998;SDS011;57339;52.156;5.372;2023-12-04T04:03:00;34.35;;;14.63;;
69998;SDS011;57339;52.156;5.372;2023-12-04T04:05:27;32.85;;;13.55;;
69998;SDS011;57339;52.156;5.372;2023-12-04T04:07:54;35.77;;;14.07;;
69998;SDS011;57339;52.156;5.372;2023-12-04T04:10:21;30.15;;;12.45;;
69998;SDS011;57339;52.156;5.372;2023-12-04T04:12:48;33.00;;;13.02;;
69998;SDS011;57339;52.156;5.372;2023-12-04T04:15:15;31.00;;;11.75;;
69998;SDS011;57339;52.156;5.372;2023-12-04T04:17:42;32.83;;;12.63;;
69998;SDS011;57339;52.156;5.372;2023-12-04T04:20:09;29.77;;;12.20;;
69998;SDS011;57339;52.156;5.372;2023-12-04T04:22:36;30.33;;;11.00;;
69998;SDS011;57339;52.156;5.372;2023-12-04T04:25:06;32.15;;;13.15;;
69998;SDS011;57339;52.156;5.372;2023-12-04T04:27:34;26.63;;;11.15;;
69998;SDS011;57339;52.156;5.372;2023-12-04T04:30:01;30.33;;;12.00;;
69998;SDS011;57339;52.156;5.372;2023-12-04T04:32:29;33.80;;;12.83;;
69998;SDS011;57339;52.156;5.372;2023-12-04T04:34:56;28.88;;;12.63;;
69998;SDS011;57339;52.156;5.372;2023-12-04T04:37:24;28.13;;;11.70;;
69998;SDS011;57339;52.156;5.372;2023-12-04T04:39:51;31.63;;;11.98;;
69998;SDS011;57339;52.156;5.372;2023-12-04T04:42:17;30.90;;;12.35;;
69998;SDS011;57339;52.156;5.372;2023-12-04T04:44:44;28.00;;;11.43;;
69998;SDS011;57339;52.156;5.372;2023-12-04T04:47:11;29.00;;;11.18;;
69998;SDS011;57339;52.156;5.372;2023-12-04T04:49:38;27.67;;;10.85;;
69998;SDS011;57339;52.156;5.372;2023-12-04T04:52:05;26.35;;;11.90;;
69998;SDS011;57339;52.156;5.372;2023-12-04T04:54:32;31.63;;;12.02;;
69998;SDS011;57339;52.156;5.372;2023-12-04T04:56:59;29.70;;;11.57;;
69998;SDS011;57339;52.156;5.372;2023-12-04T04:59:26;26.77;;;11.30;;
69998;SDS011;57339;52.156;5.372;2023-12-04T05:01:54;24.30;;;10.52;;
69998;SDS011;57339;52.156;5.372;2023-12-04T05:04:21;26.55;;;10.85;;
69998;SDS011;57339;52.156;5.372;2023-12-04T05:06:48;27.83;;;9.88;;
69998;SDS011;57339;52.156;5.372;2023-12-04T05:09:15;25.17;;;10.87;;
69998;SDS011;57339;52.156;5.372;2023-12-04T05:11:42;25.02;;;10.63;;
69998;SDS011;57339;52.156;5.372;2023-12-04T05:14:09;30.23;;;11.18;;
69998;SDS011;57339;52.156;5.372;2023-12-04T05:16:35;32.13;;;10.63;;
69998;SDS011;57339;52.156;5.372;2023-12-04T05:19:02;25.50;;;10.95;;
69998;SDS011;57339;52.156;5.372;2023-12-04T05:21:29;26.53;;;10.47;;
69998;SDS011;57339;52.156;5.372;2023-12-04T05:23:56;25.25;;;11.38;;
69998;SDS011;57339;52.156;5.372;2023-12-04T05:26:24;24.92;;;10.95;;
69998;SDS011;57339;52.156;5.372;2023-12-04T05:28:50;26.60;;;11.13;;
69998;SDS011;57339;52.156;5.372;2023-12-04T05:31:17;27.83;;;11.90;;
69998;SDS011;57339;52.156;5.372;2023-12-04T05:33:44;26.07;;;11.83;;
69998;SDS011;57339;52.156;5.372;2023-12-04T05:36:11;25.98;;;11.00;;
69998;SDS011;57339;52.156;5.372;2023-12-04T05:38:38;25.48;;;10.70;;
69998;SDS011;57339;52.156;5.372;2023-12-04T05:41:05;26.67;;;10.93;;
69998;SDS011;57339;52.156;5.372;2023-12-04T05:43:32;24.05;;;11.23;;
69998;SDS011;57339;52.156;5.372;2023-12-04T05:45:59;28.43;;;11.47;;
69998;SDS011;57339;52.156;5.372;2023-12-04T05:48:26;24.67;;;10.82;;
69998;SDS011;57339;52.156;5.372;2023-12-04T05:50:53;25.02;;;10.05;;
69998;SDS011;57339;52.156;5.372;2023-12-04T05:53:20;27.92;;;10.10;;
69998;SDS011;57339;52.156;5.372;2023-12-04T05:55:46;26.60;;;10.75;;
69998;SDS011;57339;52.156;5.372;2023-12-04T05:58:13;24.53;;;10.20;;
69998;SDS011;57339;52.156;5.372;2023-12-04T06:00:40;23.70;;;10.85;;
69998;SDS011;57339;52.156;5.372;2023-12-04T06:03:07;25.85;;;10.55;;
69998;SDS011;57339;52.156;5.372;2023-12-04T06:05:34;24.58;;;9.77;;
69998;SDS011;57339;52.156;5.372;2023-12-04T06:08:01;24.38;;;10.18;;
69998;SDS011;57339;52.156;5.372;2023-12-04T06:10:27;22.60;;;9.70;;
69998;SDS011;57339;52.156;5.372;2023-12-04T06:12:54;25.05;;;10.88;;
69998;SDS011;57339;52.156;5.372;2023-12-04T06:15:21;23.67;;;10.85;;
69998;SDS011;57339;52.156;5.372;2023-12-04T06:17:48;24.58;;;10.00;;
69998;SDS011;57339;52.156;5.372;2023-12-04T06:20:15;24.35;;;10.35;;
69998;SDS011;57339;52.156;5.372;2023-12-04T06:22:42;21.87;;;9.97;;
69998;SDS011;57339;52.156;5.372;2023-12-04T06:25:09;22.45;;;9.68;;
69998;SDS011;57339;52.156;5.372;2023-12-04T06:27:37;22.67;;;9.70;;
69998;SDS011;57339;52.156;5.372;2023-12-04T06:30:05;24.15;;;10.40;;
69998;SDS011;57339;52.156;5.372;2023-12-04T06:32:32;21.83;;;9.52;;
69998;SDS011;57339;52.156;5.372;2023-12-04T06:34:59;23.70;;;10.10;;
69998;SDS011;57339;52.156;5.372;2023-12-04T06:37:26;23.75;;;9.77;;
69998;SDS011;57339;52.156;5.372;2023-12-04T06:39:54;23.15;;;10.10;;
69998;SDS011;57339;52.156;5.372;2023-12-04T06:42:26;22.40;;;9.65;;
69998;SDS011;57339;52.156;5.372;2023-12-04T06:44:56;23.75;;;9.60;;
69998;SDS011;57339;52.156;5.372;2023-12-04T06:47:23;20.43;;;9.13;;
69998;SDS011;57339;52.156;5.372;2023-12-04T06:49:51;23.10;;;10.15;;
69998;SDS011;57339;52.156;5.372;2023-12-04T06:52:18;24.38;;;9.93;;
69998;SDS011;57339;52.156;5.372;2023-12-04T06:54:44;22.40;;;10.45;;
69998;SDS011;57339;52.156;5.372;2023-12-04T06:57:11;21.33;;;9.32;;
69998;SDS011;57339;52.156;5.372;2023-12-04T06:59:38;22.23;;;9.83;;
69998;SDS011;57339;52.156;5.372;2023-12-04T07:02:05;21.63;;;9.90;;
69998;SDS011;57339;52.156;5.372;2023-12-04T07:04:32;20.95;;;9.65;;
69998;SDS011;57339;52.156;5.372;2023-12-04T07:06:59;20.77;;;8.70;;
69998;SDS011;57339;52.156;5.372;2023-12-04T07:09:26;19.13;;;8.88;;
69998;SDS011;57339;52.156;5.372;2023-12-04T07:11:54;20.27;;;9.30;;
69998;SDS011;57339;52.156;5.372;2023-12-04T07:14:21;19.67;;;9.02;;
69998;SDS011;57339;52.156;5.372;2023-12-04T07:16:47;22.40;;;9.70;;
69998;SDS011;57339;52.156;5.372;2023-12-04T07:19:14;21.92;;;9.60;;
69998;SDS011;57339;52.156;5.372;2023-12-04T07:21:41;20.55;;;9.63;;
69998;SDS011;57339;52.156;5.372;2023-12-04T07:24:09;21.10;;;9.00;;
69998;SDS011;57339;52.156;5.372;2023-12-04T07:26:35;24.55;;;9.25;;
69998;SDS011;57339;52.156;5.372;2023-12-04T07:29:03;22.67;;;9.32;;
69998;SDS011;57339;52.156;5.372;2023-12-04T07:31:30;20.70;;;9.32;;
69998;SDS011;57339;52.156;5.372;2023-12-04T07:33:57;19.75;;;8.85;;
69998;SDS011;57339;52.156;5.372;2023-12-04T07:36:24;21.77;;;9.20;;
69998;SDS011;57339;52.156;5.372;2023-12-04T07:38:51;23.05;;;9.27;;
69998;SDS011;57339;52.156;5.372;2023-12-04T07:41:18;20.00;;;9.20;;
69998;SDS011;57339;52.156;5.372;2023-12-04T07:43:45;22.35;;;9.60;;
69998;SDS011;57339;52.156;5.372;2023-12-04T07:46:12;19.70;;;9.13;;
69998;SDS011;57339;52.156;5.372;2023-12-04T07:48:39;22.70;;;9.60;;
69998;SDS011;57339;52.156;5.372;2023-12-04T07:51:06;23.48;;;9.13;;
69998;SDS011;57339;52.156;5.372;2023-12-04T07:53:33;21.35;;;9.40;;
69998;SDS011;57339;52.156;5.372;2023-12-04T07:56:01;20.10;;;8.52;;
69998;SDS011;57339;52.156;5.372;2023-12-04T07:58:29;20.25;;;8.52;;
69998;SDS011;57339;52.156;5.372;2023-12-04T08:00:56;19.43;;;7.90;;
69998;SDS011;57339;52.156;5.372;2023-12-04T08:03:24;20.65;;;8.45;;
69998;SDS011;57339;52.156;5.372;2023-12-04T08:05:51;21.10;;;8.50;;
69998;SDS011;57339;52.156;5.372;2023-12-04T08:08:18;20.73;;;8.90;;
69998;SDS011;57339;52.156;5.372;2023-12-04T08:10:47;19.33;;;8.18;;
69998;SDS011;57339;52.156;5.372;2023-12-04T08:13:13;19.37;;;8.87;;
69998;SDS011;57339;52.156;5.372;2023-12-04T08:15:41;16.85;;;7.80;;
69998;SDS011;57339;52.156;5.372;2023-12-04T08:18:08;19.13;;;8.82;;
69998;SDS011;57339;52.156;5.372;2023-12-04T08:20:35;18.67;;;8.25;;
69998;SDS011;57339;52.156;5.372;2023-12-04T08:23:06;19.80;;;8.20;;
69998;SDS011;57339;52.156;5.372;2023-12-04T08:25:34;18.87;;;8.57;;
69998;SDS011;57339;52.156;5.372;2023-12-04T08:28:01;18.50;;;8.15;;
69998;SDS011;57339;52.156;5.372;2023-12-04T08:30:28;20.00;;;8.68;;
69998;SDS011;57339;52.156;5.372;2023-12-04T08:32:57;17.90;;;8.13;;
69998;SDS011;57339;52.156;5.372;2023-12-04T08:35:24;21.10;;;9.35;;
69998;SDS011;57339;52.156;5.372;2023-12-04T08:37:51;18.97;;;8.40;;
69998;SDS011;57339;52.156;5.372;2023-12-04T08:40:19;18.80;;;8.27;;
69998;SDS011;57339;52.156;5.372;2023-12-04T08:42:46;17.50;;;7.95;;
69998;SDS011;57339;52.156;5.372;2023-12-04T08:45:12;18.20;;;7.72;;
69998;SDS011;57339;52.156;5.372;2023-12-04T08:47:41;17.77;;;7.75;;
69998;SDS011;57339;52.156;5.372;2023-12-04T08:50:08;17.53;;;7.77;;
69998;SDS011;57339;52.156;5.372;2023-12-04T08:52:35;18.85;;;7.53;;
69998;SDS011;57339;52.156;5.372;2023-12-04T08:55:02;18.15;;;8.50;;
69998;SDS011;57339;52.156;5.372;2023-12-04T08:57:30;18.05;;;7.97;;
69998;SDS011;57339;52.156;5.372;2023-12-04T08:59:56;16.67;;;7.20;;
69998;SDS011;57339;52.156;5.372;2023-12-04T09:02:23;19.67;;;8.17;;
69998;SDS011;57339;52.156;5.372;2023-12-04T09:04:51;23.48;;;11.23;;
69998;SDS011;57339;52.156;5.372;2023-12-04T09:07:17;31.83;;;12.68;;
69998;SDS011;57339;52.156;5.372;2023-12-04T09:09:47;17.45;;;8.68;;
69998;SDS011;57339;52.156;5.372;2023-12-04T09:12:14;17.20;;;7.70;;
69998;SDS011;57339;52.156;5.372;2023-12-04T09:14:41;16.00;;;7.37;;
69998;SDS011;57339;52.156;5.372;2023-12-04T09:17:08;18.02;;;8.25;;
69998;SDS011;57339;52.156;5.372;2023-12-04T09:19:36;17.92;;;7.80;;
69998;SDS011;57339;52.156;5.372;2023-12-04T09:22:03;16.98;;;7.10;;
69998;SDS011;57339;52.156;5.372;2023-12-04T09:24:43;19.50;;;8.13;;
69998;SDS011;57339;52.156;5.372;2023-12-04T09:27:09;16.87;;;7.67;;
69998;SDS011;57339;52.156;5.372;2023-12-04T09:29:36;17.73;;;8.32;;
69998;SDS011;57339;52.156;5.372;2023-12-04T09:32:03;18.77;;;7.78;;
69998;SDS011;57339;52.156;5.372;2023-12-04T09:34:30;20.13;;;8.23;;
69998;SDS011;57339;52.156;5.372;2023-12-04T09:36:57;17.10;;;7.47;;
69998;SDS011;57339;52.156;5.372;2023-12-04T09:39:35;16.63;;;7.63;;
69998;SDS011;57339;52.156;5.372;2023-12-04T09:42:03;16.98;;;7.40;;
69998;SDS011;57339;52.156;5.372;2023-12-04T09:44:30;17.10;;;7.63;;
69998;SDS011;57339;52.156;5.372;2023-12-04T09:46:58;18.42;;;8.45;;
69998;SDS011;57339;52.156;5.372;2023-12-04T09:49:26;18.80;;;7.72;;
69998;SDS011;57339;52.156;5.372;2023-12-04T09:51:57;17.97;;;7.40;;
69998;SDS011;57339;52.156;5.372;2023-12-04T09:54:24;17.70;;;7.50;;
69998;SDS011;57339;52.156;5.372;2023-12-04T09:56:51;17.33;;;7.68;;
69998;SDS011;57339;52.156;5.372;2023-12-04T09:59:18;15.90;;;7.00;;
69998;SDS011;57339;52.156;5.372;2023-12-04T10:01:49;16.00;;;7.15;;
69998;SDS011;57339;52.156;5.372;2023-12-04T10:04:18;17.53;;;7.50;;
69998;SDS011;57339;52.156;5.372;2023-12-04T10:06:46;17.15;;;6.78;;
69998;SDS011;57339;52.156;5.372;2023-12-04T10:09:18;15.02;;;6.78;;
69998;SDS011;57339;52.156;5.372;2023-12-04T10:11:45;14.82;;;6.78;;
69998;SDS011;57339;52.156;5.372;2023-12-04T10:14:16;14.73;;;7.00;;
69998;SDS011;57339;52.156;5.372;2023-12-04T10:16:48;15.83;;;6.93;;
69998;SDS011;57339;52.156;5.372;2023-12-04T10:21:45;16.75;;;6.97;;
69998;SDS011;57339;52.156;5.372;2023-12-04T10:24:26;15.80;;;6.82;;
69998;SDS011;57339;52.156;5.372;2023-12-04T10:26:53;15.45;;;7.00;;
69998;SDS011;57339;52.156;5.372;2023-12-04T10:29:20;17.00;;;7.27;;
69998;SDS011;57339;52.156;5.372;2023-12-04T10:31:47;14.93;;;6.25;;
69998;SDS011;57339;52.156;5.372;2023-12-04T10:34:14;16.02;;;7.00;;
69998;SDS011;57339;52.156;5.372;2023-12-04T10:36:41;17.92;;;6.45;;
69998;SDS011;57339;52.156;5.372;2023-12-04T10:39:07;16.92;;;7.30;;
69998;SDS011;57339;52.156;5.372;2023-12-04T10:41:34;16.53;;;6.70;;
69998;SDS011;57339;52.156;5.372;2023-12-04T10:44:01;16.02;;;6.72;;
69998;SDS011;57339;52.156;5.372;2023-12-04T10:46:36;14.18;;;6.70;;
69998;SDS011;57339;52.156;5.372;2023-12-04T10:49:05;19.25;;;7.28;;
69998;SDS011;57339;52.156;5.372;2023-12-04T10:51:32;15.52;;;6.55;;
69998;SDS011;57339;52.156;5.372;2023-12-04T10:54:00;16.47;;;6.00;;
69998;SDS011;57339;52.156;5.372;2023-12-04T10:56:30;27.77;;;7.43;;
69998;SDS011;57339;52.156;5.372;2023-12-04T10:59:01;15.23;;;7.18;;
69998;SDS011;57339;52.156;5.372;2023-12-04T11:01:29;14.60;;;6.45;;
69998;SDS011;57339;52.156;5.372;2023-12-04T11:03:58;16.52;;;6.95;;
69998;SDS011;57339;52.156;5.372;2023-12-04T11:06:29;17.07;;;7.43;;
69998;SDS011;57339;52.156;5.372;2023-12-04T11:08:57;17.52;;;7.55;;
69998;SDS011;57339;52.156;5.372;2023-12-04T11:11:34;16.08;;;6.80;;
69998;SDS011;57339;52.156;5.372;2023-12-04T11:14:03;16.65;;;7.30;;
69998;SDS011;57339;52.156;5.372;2023-12-04T11:16:37;19.70;;;7.88;;
69998;SDS011;57339;52.156;5.372;2023-12-04T11:19:20;16.40;;;7.27;;
69998;SDS011;57339;52.156;5.372;2023-12-04T11:21:51;17.23;;;7.40;;
69998;SDS011;57339;52.156;5.372;2023-12-04T11:24:20;18.35;;;7.45;;
69998;SDS011;57339;52.156;5.372;2023-12-04T11:26:47;17.35;;;7.50;;
69998;SDS011;57339;52.156;5.372;2023-12-04T11:29:15;15.63;;;7.10;;
69998;SDS011;57339;52.156;5.372;2023-12-04T11:31:43;16.30;;;7.70;;
69998;SDS011;57339;52.156;5.372;2023-12-04T11:34:10;16.50;;;7.00;;
69998;SDS011;57339;52.156;5.372;2023-12-04T11:36:38;17.00;;;8.40;;
69998;SDS011;57339;52.156;5.372;2023-12-04T11:39:09;17.15;;;7.65;;
69998;SDS011;57339;52.156;5.372;2023-12-04T11:41:37;19.60;;;8.02;;
69998;SDS011;57339;52.156;5.372;2023-12-04T11:44:04;16.20;;;7.53;;
69998;SDS011;57339;52.156;5.372;2023-12-04T11:46:39;18.20;;;7.85;;
69998;SDS011;57339;52.156;5.372;2023-12-04T11:51:51;19.95;;;7.63;;
69998;SDS011;57339;52.156;5.372;2023-12-04T11:54:19;17.77;;;7.93;;
69998;SDS011;57339;52.156;5.372;2023-12-04T11:59:45;18.77;;;8.57;;
69998;SDS011;57339;52.156;5.372;2023-12-04T12:02:13;18.77;;;8.65;;
69998;SDS011;57339;52.156;5.372;2023-12-04T12:04:41;18.23;;;8.30;;
69998;SDS011;57339;52.156;5.372;2023-12-04T12:07:08;17.98;;;8.25;;
69998;SDS011;57339;52.156;5.372;2023-12-04T12:09:36;19.00;;;8.47;;
69998;SDS011;57339;52.156;5.372;2023-12-04T12:12:03;17.83;;;8.05;;
69998;SDS011;57339;52.156;5.372;2023-12-04T12:14:31;17.90;;;7.53;;
69998;SDS011;57339;52.156;5.372;2023-12-04T12:16:58;23.00;;;9.40;;
69998;SDS011;57339;52.156;5.372;2023-12-04T12:19:26;18.80;;;8.55;;
69998;SDS011;57339;52.156;5.372;2023-12-04T12:21:54;18.63;;;8.70;;
69998;SDS011;57339;52.156;5.372;2023-12-04T12:24:21;18.10;;;8.32;;
69998;SDS011;57339;52.156;5.372;2023-12-04T12:26:50;21.95;;;9.15;;
69998;SDS011;57339;52.156;5.372;2023-12-04T12:29:17;17.67;;;8.52;;
69998;SDS011;57339;52.156;5.372;2023-12-04T12:31:44;22.50;;;8.80;;
69998;SDS011;57339;52.156;5.372;2023-12-04T12:34:11;20.03;;;9.10;;
69998;SDS011;57339;52.156;5.372;2023-12-04T12:36:38;19.00;;;8.98;;
69998;SDS011;57339;52.156;5.372;2023-12-04T12:39:06;20.17;;;9.20;;
69998;SDS011;57339;52.156;5.372;2023-12-04T12:41:33;18.70;;;8.32;;
69998;SDS011;57339;52.156;5.372;2023-12-04T12:44:00;18.10;;;8.15;;
69998;SDS011;57339;52.156;5.372;2023-12-04T12:46:28;19.30;;;8.20;;
69998;SDS011;57339;52.156;5.372;2023-12-04T12:48:55;17.08;;;8.70;;
69998;SDS011;57339;52.156;5.372;2023-12-04T12:51:23;18.38;;;8.48;;
69998;SDS011;57339;52.156;5.372;2023-12-04T12:53:50;18.98;;;9.55;;
69998;SDS011;57339;52.156;5.372;2023-12-04T12:56:18;18.73;;;8.98;;
69998;SDS011;57339;52.156;5.372;2023-12-04T12:58:45;18.63;;;8.77;;
69998;SDS011;57339;52.156;5.372;2023-12-04T13:01:12;19.52;;;8.75;;
69998;SDS011;57339;52.156;5.372;2023-12-04T13:03:39;20.88;;;8.63;;
69998;SDS011;57339;52.156;5.372;2023-12-04T13:06:07;20.05;;;8.88;;
69998;SDS011;57339;52.156;5.372;2023-12-04T13:08:34;18.50;;;8.15;;
69998;SDS011;57339;52.156;5.372;2023-12-04T13:11:01;21.00;;;9.13;;
69998;SDS011;57339;52.156;5.372;2023-12-04T13:13:29;19.40;;;8.80;;
69998;SDS011;57339;52.156;5.372;2023-12-04T13:15:57;19.77;;;9.35;;
69998;SDS011;57339;52.156;5.372;2023-12-04T13:18:23;19.13;;;8.82;;
69998;SDS011;57339;52.156;5.372;2023-12-04T13:20:50;19.35;;;8.48;;
69998;SDS011;57339;52.156;5.372;2023-12-04T13:23:17;17.23;;;8.83;;
69998;SDS011;57339;52.156;5.372;2023-12-04T13:25:44;19.48;;;8.82;;
69998;SDS011;57339;52.156;5.372;2023-12-04T13:28:11;19.65;;;9.38;;
69998;SDS011;57339;52.156;5.372;2023-12-04T13:30:53;18.45;;;8.98;;
69998;SDS011;57339;52.156;5.372;2023-12-04T13:33:20;19.35;;;9.32;;
69998;SDS011;57339;52.156;5.372;2023-12-04T13:35:47;21.27;;;9.67;;
69998;SDS011;57339;52.156;5.372;2023-12-04T13:38:14;19.52;;;9.13;;
69998;SDS011;57339;52.156;5.372;2023-12-04T13:40:48;18.20;;;8.75;;
69998;SDS011;57339;52.156;5.372;2023-12-04T13:43:16;19.92;;;8.35;;
69998;SDS011;57339;52.156;5.372;2023-12-04T13:45:43;16.85;;;8.05;;
69998;SDS011;57339;52.156;5.372;2023-12-04T13:48:09;19.43;;;8.83;;
69998;SDS011;57339;52.156;5.372;2023-12-04T13:50:39;19.00;;;9.05;;
69998;SDS011;57339;52.156;5.372;2023-12-04T13:53:07;22.02;;;9.93;;
69998;SDS011;57339;52.156;5.372;2023-12-04T13:55:33;20.48;;;9.48;;
69998;SDS011;57339;52.156;5.372;2023-12-04T13:58:00;18.17;;;8.85;;
69998;SDS011;57339;52.156;5.372;2023-12-04T14:00:28;17.80;;;7.93;;
69998;SDS011;57339;52.156;5.372;2023-12-04T14:02:55;21.40;;;9.38;;
69998;SDS011;57339;52.156;5.372;2023-12-04T14:05:22;21.83;;;10.32;;
69998;SDS011;57339;52.156;5.372;2023-12-04T14:07:50;19.30;;;9.05;;
69998;SDS011;57339;52.156;5.372;2023-12-04T14:10:17;18.63;;;9.20;;
69998;SDS011;57339;52.156;5.372;2023-12-04T14:12:44;20.07;;;9.20;;
69998;SDS011;57339;52.156;5.372;2023-12-04T14:15:11;19.17;;;9.10;;
69998;SDS011;57339;52.156;5.372;2023-12-04T14:17:38;21.45;;;9.43;;
69998;SDS011;57339;52.156;5.372;2023-12-04T14:20:06;21.02;;;9.18;;
69998;SDS011;57339;52.156;5.372;2023-12-04T14:22:33;20.00;;;8.90;;
69998;SDS011;57339;52.156;5.372;2023-12-04T14:25:00;19.37;;;8.87;;
69998;SDS011;57339;52.156;5.372;2023-12-04T14:27:28;19.35;;;9.20;;
69998;SDS011;57339;52.156;5.372;2023-12-04T14:29:55;22.05;;;9.70;;
69998;SDS011;57339;52.156;5.372;2023-12-04T14:32:24;23.88;;;9.38;;
69998;SDS011;57339;52.156;5.372;2023-12-04T14:35:00;17.80;;;8.82;;
69998;SDS011;57339;52.156;5.372;2023-12-04T14:37:27;21.43;;;11.03;;
69998;SDS011;57339;52.156;5.372;2023-12-04T14:39:53;19.42;;;9.35;;